createdAt,value
2022-12-08T00:01:09.717Z,18.55
2022-12-08T00:03:37.105Z,23.00
2022-12-08T00:06:24.043Z,19.63
2022-12-08T00:09:09.965Z,19.50
2022-12-08T00:11:36.850Z,19.52
2022-12-08T00:14:03.459Z,19.58
2022-12-08T00:16:29.962Z,19.50
2022-12-08T00:18:56.410Z,21.42
2022-12-08T00:21:22.800Z,19.45
2022-12-08T00:23:49.173Z,20.35
2022-12-08T00:26:15.756Z,20.38
2022-12-08T00:28:42.290Z,19.58
2022-12-08T00:31:10.526Z,20.85
2022-12-08T00:33:37.629Z,19.10
2022-12-08T00:36:12.061Z,20.33
2022-12-08T00:38:39.698Z,21.95
2022-12-08T00:41:14.321Z,20.33
2022-12-08T00:43:41.287Z,20.85
2022-12-08T00:46:07.719Z,20.88
2022-12-08T00:48:34.342Z,20.27
2022-12-08T00:51:00.699Z,20.17
2022-12-08T00:53:27.582Z,21.13
2022-12-08T00:55:53.936Z,20.40
2022-12-08T00:58:20.361Z,20.08
2022-12-08T01:00:46.866Z,17.63
2022-12-08T01:03:13.599Z,17.92
2022-12-08T01:05:40.064Z,18.70
2022-12-08T01:08:07.405Z,16.33
2022-12-08T01:10:38.236Z,16.10
2022-12-08T01:13:04.827Z,15.80
2022-12-08T01:15:31.258Z,15.32
2022-12-08T01:17:57.970Z,15.38
2022-12-08T01:20:24.673Z,14.90
2022-12-08T01:22:51.013Z,13.93
2022-12-08T01:25:17.528Z,13.20
2022-12-08T01:27:43.868Z,13.38
2022-12-08T01:30:10.607Z,13.30
2022-12-08T01:32:36.994Z,12.90
2022-12-08T01:35:03.735Z,13.88
2022-12-08T01:37:30.185Z,14.32
2022-12-08T01:39:56.577Z,14.43
2022-12-08T01:42:23.558Z,13.25
2022-12-08T01:44:54.983Z,13.88
2022-12-08T01:47:24.439Z,12.77
2022-12-08T01:49:51.032Z,13.95
2022-12-08T01:52:28.985Z,13.40
2022-12-08T01:55:02.574Z,12.27
2022-12-08T01:57:39.517Z,11.80
2022-12-08T02:00:09.309Z,12.70
2022-12-08T02:02:49.624Z,11.88
2022-12-08T02:05:17.014Z,12.25
2022-12-08T02:07:43.658Z,12.98
2022-12-08T02:10:13.781Z,12.23
2022-12-08T02:12:40.275Z,12.25
2022-12-08T02:15:07.057Z,11.52
2022-12-08T02:18:03.042Z,9.95
2022-12-08T02:20:37.770Z,9.00
2022-12-08T02:23:13.486Z,8.85
2022-12-08T02:25:55.350Z,9.35
2022-12-08T02:29:03.369Z,9.45
2022-12-08T02:31:54.708Z,9.65
2022-12-08T02:34:29.579Z,10.55
2022-12-08T02:37:17.614Z,9.77
2022-12-08T02:39:54.991Z,10.68
2022-12-08T02:42:27.986Z,11.38
2022-12-08T02:45:03.499Z,11.18
2022-12-08T02:47:32.142Z,11.82
2022-12-08T02:49:58.997Z,11.77
2022-12-08T02:52:25.348Z,12.10
2022-12-08T02:54:57.480Z,12.80
2022-12-08T02:57:48.603Z,12.07
2022-12-08T03:00:24.330Z,11.73
2022-12-08T03:03:07.929Z,11.77
2022-12-08T03:06:18.954Z,11.88
2022-12-08T03:08:48.022Z,11.25
2022-12-08T03:11:21.261Z,10.13
2022-12-08T03:13:54.022Z,9.50
2022-12-08T03:16:24.581Z,8.88
2022-12-08T03:19:23.184Z,8.60
2022-12-08T03:21:52.913Z,9.27
2022-12-08T03:24:21.931Z,8.02
2022-12-08T03:27:14.255Z,7.93
2022-12-08T03:29:40.909Z,7.90
2022-12-08T03:32:15.984Z,7.97
2022-12-08T03:34:45.665Z,7.22
2022-12-08T03:37:12.380Z,6.82
2022-12-08T03:39:38.782Z,7.03
2022-12-08T03:42:05.290Z,6.60
2022-12-08T03:44:31.720Z,6.03
2022-12-08T03:46:58.071Z,6.45
2022-12-08T03:49:24.451Z,6.88
2022-12-08T03:51:50.900Z,7.20
2022-12-08T03:54:17.262Z,6.93
2022-12-08T03:56:43.867Z,7.40
2022-12-08T03:59:10.936Z,6.63
2022-12-08T04:01:37.508Z,6.43
2022-12-08T04:04:03.984Z,6.50
2022-12-08T04:06:30.419Z,5.85
2022-12-08T04:08:56.773Z,5.65
2022-12-08T04:11:23.209Z,5.38
2022-12-08T04:13:49.624Z,5.68
2022-12-08T04:16:19.168Z,5.75
2022-12-08T04:18:45.839Z,5.35
2022-12-08T04:21:12.735Z,5.38
2022-12-08T04:23:39.353Z,4.40
2022-12-08T04:26:05.915Z,4.65
2022-12-08T04:28:32.450Z,4.50
2022-12-08T04:30:58.867Z,5.10
2022-12-08T04:33:25.402Z,3.90
2022-12-08T04:35:51.748Z,4.32
2022-12-08T04:38:18.313Z,3.95
2022-12-08T04:40:45.003Z,3.50
2022-12-08T04:43:11.451Z,4.05
2022-12-08T04:45:42.451Z,3.25
2022-12-08T04:48:09.583Z,3.53
2022-12-08T04:50:35.987Z,3.90
2022-12-08T04:53:02.333Z,3.78
2022-12-08T04:55:28.798Z,3.75
2022-12-08T04:57:55.141Z,3.97
2022-12-08T05:00:21.685Z,4.65
2022-12-08T05:02:48.200Z,4.45
2022-12-08T05:05:14.742Z,4.20
2022-12-08T05:07:41.109Z,3.72
2022-12-08T05:10:08.473Z,3.80
2022-12-08T05:12:34.826Z,4.07
2022-12-08T05:15:02.156Z,3.60
2022-12-08T05:17:28.543Z,3.38
2022-12-08T05:19:55.116Z,3.20
2022-12-08T05:22:21.492Z,3.65
2022-12-08T05:24:48.086Z,3.90
2022-12-08T05:27:14.895Z,3.80
2022-12-08T05:29:41.576Z,4.50
2022-12-08T05:32:08.266Z,4.25
2022-12-08T05:34:34.760Z,3.97
2022-12-08T05:37:01.148Z,4.22
2022-12-08T05:39:27.631Z,3.60
2022-12-08T05:41:54.065Z,3.53
2022-12-08T05:44:20.485Z,3.38
2022-12-08T05:46:46.922Z,3.58
2022-12-08T05:49:13.540Z,3.03
2022-12-08T05:51:39.986Z,2.95
2022-12-08T05:54:06.425Z,2.90
2022-12-08T05:56:32.981Z,3.55
2022-12-08T05:58:59.504Z,3.55
2022-12-08T06:01:31.450Z,3.38
2022-12-08T06:04:00.434Z,3.72
2022-12-08T06:06:28.049Z,3.92
2022-12-08T06:08:54.775Z,3.38
2022-12-08T06:11:26.726Z,3.47
2022-12-08T06:13:54.405Z,3.30
2022-12-08T06:16:21.001Z,3.25
2022-12-08T06:18:47.480Z,2.88
2022-12-08T06:21:15.475Z,3.40
2022-12-08T06:23:42.781Z,3.90
2022-12-08T06:26:12.217Z,2.97
2022-12-08T06:28:39.585Z,2.78
2022-12-08T06:31:22.001Z,3.20
2022-12-08T06:33:49.076Z,2.92
2022-12-08T06:36:21.618Z,3.10
2022-12-08T06:38:48.624Z,3.55
2022-12-08T06:41:15.271Z,3.45
2022-12-08T06:43:41.978Z,3.00
2022-12-08T06:46:12.718Z,3.17
2022-12-08T06:48:39.678Z,3.00
2022-12-08T06:51:11.415Z,2.88
2022-12-08T06:53:39.213Z,3.05
2022-12-08T06:56:06.835Z,2.90
2022-12-08T06:58:33.604Z,3.17
2022-12-08T07:01:09.176Z,3.00
2022-12-08T07:03:36.725Z,3.15
2022-12-08T07:06:04.462Z,3.25
2022-12-08T07:08:32.065Z,3.17
2022-12-08T07:10:58.684Z,3.88
2022-12-08T07:13:25.319Z,3.85
2022-12-08T07:15:51.858Z,3.40
2022-12-08T07:18:18.310Z,3.92
2022-12-08T07:20:45.097Z,3.63
2022-12-08T07:23:12.734Z,4.10
2022-12-08T07:25:39.060Z,4.60
2022-12-08T07:28:12.800Z,4.97
2022-12-08T07:30:39.825Z,4.53
2022-12-08T07:33:06.539Z,4.45
2022-12-08T07:35:35.054Z,4.63
2022-12-08T07:38:02.205Z,4.82
2022-12-08T07:40:28.624Z,4.95
2022-12-08T07:42:55.013Z,5.28
2022-12-08T07:45:22.893Z,5.20
2022-12-08T07:47:51.085Z,6.07
2022-12-08T07:50:17.575Z,5.30
2022-12-08T07:52:44.747Z,5.60
2022-12-08T07:55:11.131Z,6.45
2022-12-08T07:57:37.570Z,6.25
2022-12-08T08:00:05.590Z,6.85
2022-12-08T08:02:38.147Z,6.47
2022-12-08T08:05:05.028Z,6.72
2022-12-08T08:07:32.210Z,7.00
2022-12-08T08:09:58.683Z,7.50
2022-12-08T08:12:33.049Z,6.90
2022-12-08T08:15:01.746Z,7.75
2022-12-08T08:17:29.624Z,7.05
2022-12-08T08:19:56.317Z,7.38
2022-12-08T08:22:22.756Z,7.80
2022-12-08T08:24:49.467Z,7.68
2022-12-08T08:27:15.793Z,7.97
2022-12-08T08:29:42.240Z,8.30
2022-12-08T08:32:08.694Z,7.80
2022-12-08T08:34:35.117Z,8.32
2022-12-08T08:37:01.662Z,8.68
2022-12-08T08:39:30.140Z,8.45
2022-12-08T08:41:56.630Z,8.43
2022-12-08T08:44:23.543Z,9.25
2022-12-08T08:46:49.961Z,8.35
2022-12-08T08:49:16.488Z,7.55
2022-12-08T08:51:43.652Z,7.45
2022-12-08T08:54:10.391Z,8.15
2022-12-08T08:56:36.766Z,7.05
2022-12-08T08:59:03.747Z,7.40
2022-12-08T09:01:30.209Z,8.20
2022-12-08T09:03:56.889Z,8.70
2022-12-08T09:06:24.382Z,9.13
2022-12-08T09:08:50.817Z,7.60
2022-12-08T09:11:18.703Z,6.88
2022-12-08T09:13:48.241Z,6.85
2022-12-08T09:16:14.989Z,6.53
2022-12-08T09:18:41.475Z,6.40
2022-12-08T09:21:12.907Z,7.38
2022-12-08T09:23:39.423Z,7.60
2022-12-08T09:26:06.093Z,7.88
2022-12-08T09:28:33.212Z,7.85
2022-12-08T09:30:59.695Z,6.85
2022-12-08T09:33:26.163Z,7.15
2022-12-08T09:35:52.656Z,7.07
2022-12-08T09:38:19.319Z,6.63
2022-12-08T09:40:54.900Z,6.45
2022-12-08T09:43:45.953Z,6.35
2022-12-08T09:46:17.492Z,6.47
2022-12-08T09:48:57.019Z,6.18
2022-12-08T09:51:31.499Z,6.82
2022-12-08T09:54:08.550Z,6.72
2022-12-08T09:56:37.151Z,6.38
2022-12-08T09:59:21.790Z,6.15
2022-12-08T10:01:48.768Z,5.82
2022-12-08T10:04:35.522Z,6.22
2022-12-08T10:07:26.663Z,5.95
2022-12-08T10:10:11.752Z,7.53
2022-12-08T10:13:05.991Z,9.48
2022-12-08T10:15:53.552Z,7.05
2022-12-08T10:18:25.311Z,6.57
2022-12-08T10:20:51.974Z,5.95
2022-12-08T10:23:25.268Z,5.80
2022-12-08T10:26:12.581Z,5.80
2022-12-08T10:28:44.729Z,5.47
2022-12-08T10:31:20.139Z,5.72
2022-12-08T10:33:59.693Z,5.70
2022-12-08T10:36:55.993Z,5.30
2022-12-08T10:39:40.742Z,5.85
2022-12-08T10:42:21.983Z,5.07
2022-12-08T10:44:57.700Z,4.78
2022-12-08T10:47:26.786Z,5.50
2022-12-08T10:50:18.963Z,4.95
2022-12-08T10:52:46.459Z,5.70
2022-12-08T10:55:18.322Z,6.35
2022-12-08T10:57:44.843Z,6.00
2022-12-08T11:00:17.129Z,6.18
2022-12-08T11:02:53.413Z,5.70
2022-12-08T11:05:21.495Z,6.05
2022-12-08T11:07:51.718Z,5.88
2022-12-08T11:10:20.092Z,5.10
2022-12-08T11:12:46.847Z,5.20
2022-12-08T11:15:18.526Z,5.35
2022-12-08T11:17:52.137Z,5.65
2022-12-08T11:20:23.318Z,5.30
2022-12-08T11:22:55.318Z,4.95
2022-12-08T11:25:26.296Z,4.90
2022-12-08T11:27:56.996Z,5.03
2022-12-08T11:30:27.895Z,4.63
2022-12-08T11:33:02.150Z,4.38
2022-12-08T11:35:40.399Z,5.15
2022-12-08T11:38:21.683Z,4.68
2022-12-08T11:40:52.118Z,4.93
2022-12-08T11:43:31.235Z,4.95
2022-12-08T11:46:00.926Z,5.32
2022-12-08T11:48:37.357Z,4.90
2022-12-08T11:51:26.424Z,4.95
2022-12-08T11:54:23.839Z,5.22
2022-12-08T11:56:54.408Z,4.97
2022-12-08T11:59:35.780Z,5.47
2022-12-08T12:02:04.238Z,5.72
2022-12-08T12:04:42.027Z,5.15
2022-12-08T12:07:45.315Z,5.55
2022-12-08T12:10:33.681Z,7.57
2022-12-08T12:13:21.947Z,6.65
2022-12-08T12:16:21.379Z,7.05
2022-12-08T12:18:53.605Z,6.53
2022-12-08T12:21:39.214Z,6.38
2022-12-08T12:24:14.458Z,5.90
2022-12-08T12:26:58.492Z,5.30
2022-12-08T12:29:29.928Z,5.65
2022-12-08T12:32:03.576Z,5.72
2022-12-08T12:34:34.096Z,5.65
2022-12-08T12:37:12.899Z,5.55
2022-12-08T12:40:03.817Z,6.18
2022-12-08T12:42:44.087Z,5.70
2022-12-08T12:45:16.633Z,6.40
2022-12-08T12:47:57.234Z,6.53
2022-12-08T12:50:37.049Z,6.10
2022-12-08T12:53:10.705Z,6.55
2022-12-08T12:55:46.138Z,7.03
2022-12-08T12:58:27.721Z,6.15
2022-12-08T13:01:48.795Z,6.55
2022-12-08T13:04:16.251Z,6.65
2022-12-08T13:06:50.307Z,5.65
2022-12-08T13:09:21.609Z,6.70
2022-12-08T13:11:55.476Z,6.63
2022-12-08T13:14:29.833Z,6.47
2022-12-08T13:16:58.791Z,7.35
2022-12-08T13:19:26.035Z,7.95
2022-12-08T13:21:52.533Z,7.57
2022-12-08T13:24:24.965Z,6.78
2022-12-08T13:27:03.813Z,7.63
2022-12-08T13:29:31.581Z,7.75
2022-12-08T13:32:00.029Z,6.97
2022-12-08T13:34:45.236Z,6.90
2022-12-08T13:37:11.601Z,7.28
2022-12-08T13:39:44.870Z,7.35
2022-12-08T13:42:41.783Z,6.95
2022-12-08T13:55:00.714Z,7.47
2022-12-08T13:57:14.137Z,7.13
2022-12-08T13:59:45.334Z,7.15
2022-12-08T14:02:47.867Z,6.90
2022-12-08T14:05:18.974Z,7.43
2022-12-08T14:07:49.418Z,7.15
2022-12-08T14:10:29.094Z,7.55
2022-12-08T14:13:04.134Z,7.25
2022-12-08T14:15:38.306Z,7.38
2022-12-08T14:18:06.228Z,8.02
2022-12-08T14:20:52.007Z,7.07
2022-12-08T14:23:20.675Z,7.20
2022-12-08T14:25:48.173Z,7.75
2022-12-08T14:28:14.618Z,6.55
2022-12-08T14:30:41.123Z,7.35
2022-12-08T14:33:14.398Z,6.47
2022-12-08T14:35:40.997Z,7.10
2022-12-08T14:38:16.475Z,6.80
2022-12-08T14:40:45.806Z,7.13
2022-12-08T14:43:14.908Z,7.32
2022-12-08T14:45:44.090Z,8.05
2022-12-08T14:48:33.288Z,7.90
2022-12-08T14:51:19.332Z,7.10
2022-12-08T14:53:52.247Z,7.97
2022-12-08T14:56:24.546Z,7.35
2022-12-08T14:59:04.490Z,7.60
2022-12-08T15:01:31.740Z,7.50
2022-12-08T15:04:06.920Z,8.32
2022-12-08T15:06:33.457Z,8.27
2022-12-08T15:09:13.803Z,9.55
2022-12-08T15:11:40.198Z,9.95
2022-12-08T15:14:27.648Z,9.15
2022-12-08T15:16:55.305Z,9.05
2022-12-08T15:19:29.522Z,8.77
2022-12-08T15:21:58.943Z,8.82
2022-12-08T15:24:29.599Z,9.75
2022-12-08T15:26:56.044Z,9.52
2022-12-08T15:29:28.453Z,10.13
2022-12-08T15:31:58.019Z,9.45
2022-12-08T15:34:24.814Z,9.63
2022-12-08T15:36:52.998Z,10.32
2022-12-08T15:39:28.441Z,10.48
2022-12-08T15:41:54.862Z,12.70
2022-12-08T15:44:21.199Z,12.85
2022-12-08T15:46:47.663Z,12.75
2022-12-08T15:49:17.648Z,12.48
2022-12-08T15:51:44.868Z,12.45
2022-12-08T15:54:11.227Z,12.05
2022-12-08T15:57:10.445Z,13.32
2022-12-08T15:59:28.101Z,12.18
2022-12-08T16:01:54.474Z,11.23
2022-12-08T16:05:25.190Z,11.50
2022-12-08T16:07:29.382Z,12.30
2022-12-08T16:09:56.947Z,11.65
2022-12-08T16:18:26.621Z,13.63
2022-12-08T16:23:44.097Z,12.73
2022-12-08T16:26:35.669Z,13.73
2022-12-08T16:29:00.647Z,13.60
2022-12-08T16:31:27.255Z,13.65
2022-12-08T16:33:53.643Z,15.18
2022-12-08T16:36:20.098Z,17.63
2022-12-08T16:38:46.497Z,18.05
2022-12-08T16:41:36.204Z,16.92
2022-12-08T16:44:04.577Z,17.20
2022-12-08T16:46:31.532Z,20.77
2022-12-08T16:48:58.835Z,18.10
2022-12-08T16:51:27.262Z,18.17
2022-12-08T16:53:54.964Z,18.00
2022-12-08T16:56:24.079Z,19.58
2022-12-08T16:58:52.947Z,18.65
2022-12-08T17:01:19.543Z,20.02
2022-12-08T17:04:07.060Z,18.60
2022-12-08T17:06:32.946Z,17.10
2022-12-08T17:08:59.477Z,17.80
2022-12-08T17:11:28.261Z,17.05
2022-12-08T17:13:54.670Z,16.42
2022-12-08T17:16:21.783Z,16.52
2022-12-08T17:18:48.514Z,16.50
2022-12-08T17:21:16.658Z,16.63
2022-12-08T17:23:43.654Z,17.70
2022-12-08T17:26:10.445Z,18.17
2022-12-08T17:28:59.445Z,16.85
2022-12-08T17:31:29.428Z,16.77
2022-12-08T17:33:59.462Z,15.63
2022-12-08T17:36:25.970Z,16.88
2022-12-08T17:38:52.317Z,16.65
2022-12-08T17:41:18.782Z,17.20
2022-12-08T17:43:45.284Z,17.65
2022-12-08T17:46:17.300Z,17.48
2022-12-08T17:48:43.955Z,17.60
2022-12-08T17:51:10.447Z,18.40
2022-12-08T17:53:37.731Z,20.17
2022-12-08T17:56:04.315Z,20.55
2022-12-08T17:58:31.043Z,22.58
2022-12-08T18:00:57.483Z,23.95
2022-12-08T18:03:23.921Z,22.48
2022-12-08T18:05:50.880Z,21.40
2022-12-08T18:08:17.699Z,21.15
2022-12-08T18:10:44.141Z,24.00
2022-12-08T18:13:10.576Z,22.27
2022-12-08T18:15:39.307Z,20.48
2022-12-08T18:18:06.110Z,20.42
2022-12-08T18:20:32.491Z,19.90
2022-12-08T18:22:58.869Z,18.10
2022-12-08T18:25:25.332Z,17.17
2022-12-08T18:27:51.768Z,17.65
2022-12-08T18:30:18.597Z,18.23
2022-12-08T18:32:45.547Z,17.63
2022-12-08T18:35:11.970Z,17.67
2022-12-08T18:37:38.463Z,17.95
2022-12-08T18:40:05.916Z,16.98
2022-12-08T18:42:32.504Z,17.45
2022-12-08T18:45:02.889Z,17.85
2022-12-08T18:47:32.852Z,17.88
2022-12-08T18:49:59.528Z,17.80
2022-12-08T18:52:32.212Z,18.52
2022-12-08T18:55:07.505Z,18.33
2022-12-08T18:57:37.875Z,19.60
2022-12-08T19:00:06.520Z,17.63
2022-12-08T19:02:34.879Z,18.15
2022-12-08T19:05:01.983Z,17.90
2022-12-08T19:07:28.560Z,17.55
2022-12-08T19:09:56.119Z,15.98
2022-12-08T19:12:22.793Z,18.23
2022-12-08T19:14:49.327Z,19.40
2022-12-08T19:17:15.717Z,21.05
2022-12-08T19:19:42.181Z,19.30
2022-12-08T19:22:08.539Z,19.60
2022-12-08T19:24:36.591Z,18.75
2022-12-08T19:27:04.284Z,19.17
2022-12-08T19:29:30.702Z,18.65
2022-12-08T19:31:57.443Z,20.23
2022-12-08T19:34:24.262Z,21.10
2022-12-08T19:36:50.702Z,20.88
2022-12-08T19:39:38.361Z,19.70
2022-12-08T19:42:37.120Z,22.25
2022-12-08T19:45:13.496Z,22.23
2022-12-08T19:47:40.555Z,21.35
2022-12-08T19:50:27.481Z,22.25
2022-12-08T19:52:54.408Z,22.30
2022-12-08T19:55:20.867Z,22.05
2022-12-08T19:57:47.374Z,21.65
2022-12-08T20:00:14.444Z,20.92
2022-12-08T20:02:41.094Z,20.50
2022-12-08T20:05:10.774Z,21.52
2022-12-08T20:07:37.760Z,22.40
2022-12-08T20:10:11.650Z,22.08
2022-12-08T20:12:37.994Z,22.25
2022-12-08T20:15:05.013Z,23.55
2022-12-08T20:17:31.417Z,24.48
2022-12-08T20:20:00.508Z,23.65
2022-12-08T20:22:29.047Z,21.50
2022-12-08T20:25:09.630Z,22.55
2022-12-08T20:27:39.044Z,23.00
2022-12-08T20:30:08.564Z,21.60
2022-12-08T20:32:36.967Z,23.08
2022-12-08T20:35:03.845Z,21.40
2022-12-08T20:37:30.671Z,20.83
2022-12-08T20:39:57.027Z,20.77
2022-12-08T20:42:23.999Z,21.88
2022-12-08T20:44:50.483Z,22.10
2022-12-08T20:47:17.463Z,22.38
2022-12-08T20:49:43.961Z,22.00
2022-12-08T20:52:10.328Z,22.67
2022-12-08T20:54:37.441Z,23.08
2022-12-08T20:57:04.182Z,24.50
2022-12-08T20:59:30.753Z,24.13
2022-12-08T21:01:57.736Z,23.35
2022-12-08T21:04:24.619Z,23.00
2022-12-08T21:06:51.260Z,23.45
2022-12-08T21:09:18.038Z,22.85
2022-12-08T21:11:45.095Z,24.83
2022-12-08T21:14:11.675Z,23.48
2022-12-08T21:16:38.277Z,24.90
2022-12-08T21:19:05.884Z,24.73
2022-12-08T21:21:32.692Z,23.13
2022-12-08T21:23:59.406Z,23.75
2022-12-08T21:26:26.492Z,24.55
2022-12-08T21:28:54.695Z,24.50
2022-12-08T21:31:21.863Z,23.98
2022-12-08T21:33:49.178Z,24.73
2022-12-08T21:36:18.128Z,23.90
2022-12-08T21:38:46.836Z,24.20
2022-12-08T21:41:15.833Z,26.33
2022-12-08T21:43:43.242Z,25.77
2022-12-08T21:46:16.933Z,24.35
2022-12-08T21:48:43.983Z,25.13
2022-12-08T21:51:10.927Z,26.00
2022-12-08T21:53:37.456Z,26.75
2022-12-08T21:56:08.813Z,25.00
2022-12-08T21:58:35.402Z,23.83
2022-12-08T22:01:09.636Z,25.13
2022-12-08T22:03:39.129Z,25.67
2022-12-08T22:06:11.524Z,22.67
2022-12-08T22:08:38.515Z,23.17
2022-12-08T22:11:06.072Z,21.90
2022-12-08T22:13:37.684Z,20.55
2022-12-08T22:16:06.610Z,19.63
2022-12-08T22:18:34.280Z,19.70
2022-12-08T22:21:01.224Z,20.63
2022-12-08T22:23:28.920Z,19.70
2022-12-08T22:26:00.510Z,20.30
2022-12-08T22:28:30.683Z,19.13
2022-12-08T22:30:57.460Z,19.63
2022-12-08T22:33:24.207Z,21.65
2022-12-08T22:36:08.113Z,20.27
2022-12-08T22:38:37.348Z,19.33
2022-12-08T22:41:05.613Z,21.55
2022-12-08T22:43:32.922Z,20.75
2022-12-08T22:46:00.035Z,22.33
2022-12-08T22:48:26.809Z,20.98
2022-12-08T22:50:59.718Z,20.52
2022-12-08T22:53:26.443Z,20.05
2022-12-08T22:55:53.118Z,21.63
2022-12-08T22:58:19.903Z,20.42
2022-12-08T23:00:46.571Z,20.10
2022-12-08T23:03:13.014Z,19.90
2022-12-08T23:05:40.603Z,21.33
2022-12-08T23:08:08.649Z,21.65
2022-12-08T23:10:35.922Z,20.77
2022-12-08T23:13:04.189Z,22.00
2022-12-08T23:15:31.751Z,22.55
2022-12-08T23:17:58.716Z,22.67
2022-12-08T23:20:25.326Z,21.50
2022-12-08T23:22:51.796Z,21.08
2022-12-08T23:25:19.047Z,20.35
2022-12-08T23:27:46.192Z,20.45
2022-12-08T23:30:13.991Z,22.02
2022-12-08T23:32:40.865Z,21.17
2022-12-08T23:35:08.045Z,23.13
2022-12-08T23:37:34.823Z,25.35
2022-12-08T23:40:02.153Z,21.30
2022-12-08T23:42:29.978Z,25.27
2022-12-08T23:44:57.509Z,25.63
2022-12-08T23:47:24.121Z,19.83
2022-12-08T23:49:50.567Z,23.70
2022-12-08T23:52:17.034Z,24.45
2022-12-08T23:54:44.875Z,20.67
2022-12-08T23:57:11.669Z,21.17
2022-12-08T23:59:38.211Z,18.92
